sensor_id;sensor_type;location;lat;lon;timestamp;temperature;humidity
975;DHT22;6115;49.296;10.602;2023-06-10T00:03:39;18.40;49.10
975;DHT22;6115;49.296;10.602;2023-06-10T00:08:41;18.20;49.70
975;DHT22;6115;49.296;10.602;2023-06-10T00:13:42;18.10;50.10
975;DHT22;6115;49.296;10.602;2023-06-10T00:18:43;18.00;50.10
975;DHT22;6115;49.296;10.602;2023-06-10T00:23:44;17.90;50.60
975;DHT22;6115;49.296;10.602;2023-06-10T00:28:44;17.80;50.90
975;DHT22;6115;49.296;10.602;2023-06-10T00:33:45;17.80;51.10
975;DHT22;6115;49.296;10.602;2023-06-10T00:38:46;17.60;51.60
975;DHT22;6115;49.296;10.602;2023-06-10T00:43:46;17.60;51.80
975;DHT22;6115;49.296;10.602;2023-06-10T00:48:47;17.50;51.60
975;DHT22;6115;49.296;10.602;2023-06-10T00:53:48;17.40;52.10
975;DHT22;6115;49.296;10.602;2023-06-10T00:58:49;17.40;52.40
975;DHT22;6115;49.296;10.602;2023-06-10T01:03:50;17.30;52.60
975;DHT22;6115;49.296;10.602;2023-06-10T01:09:17;17.20;52.70
975;DHT22;6115;49.296;10.602;2023-06-10T01:14:19;17.00;53.20
975;DHT22;6115;49.296;10.602;2023-06-10T01:19:21;16.90;53.40
975;DHT22;6115;49.296;10.602;2023-06-10T01:24:24;16.80;53.60
975;DHT22;6115;49.296;10.602;2023-06-10T01:29:36;16.80;53.90
975;DHT22;6115;49.296;10.602;2023-06-10T01:34:42;16.70;54.10
975;DHT22;6115;49.296;10.602;2023-06-10T01:39:43;16.70;54.10
975;DHT22;6115;49.296;10.602;2023-06-10T01:44:45;16.60;54.60
975;DHT22;6115;49.296;10.602;2023-06-10T01:49:46;16.60;55.70
975;DHT22;6115;49.296;10.602;2023-06-10T01:54:47;16.50;54.80
975;DHT22;6115;49.296;10.602;2023-06-10T01:59:47;16.40;55.10
975;DHT22;6115;49.296;10.602;2023-06-10T02:04:48;16.40;55.40
975;DHT22;6115;49.296;10.602;2023-06-10T02:09:48;16.30;55.90
975;DHT22;6115;49.296;10.602;2023-06-10T02:14:49;16.40;55.80
975;DHT22;6115;49.296;10.602;2023-06-10T02:19:50;16.30;55.90
975;DHT22;6115;49.296;10.602;2023-06-10T02:24:54;16.30;55.90
975;DHT22;6115;49.296;10.602;2023-06-10T02:29:55;16.20;55.80
975;DHT22;6115;49.296;10.602;2023-06-10T02:34:56;16.10;55.70
975;DHT22;6115;49.296;10.602;2023-06-10T02:39:56;16.00;56.20
975;DHT22;6115;49.296;10.602;2023-06-10T02:44:57;16.00;56.30
975;DHT22;6115;49.296;10.602;2023-06-10T02:49:57;15.90;56.60
975;DHT22;6115;49.296;10.602;2023-06-10T02:54:58;15.90;57.00
975;DHT22;6115;49.296;10.602;2023-06-10T02:59:59;15.80;57.20
975;DHT22;6115;49.296;10.602;2023-06-10T03:04:59;15.80;57.30
975;DHT22;6115;49.296;10.602;2023-06-10T03:10:00;15.80;57.50
975;DHT22;6115;49.296;10.602;2023-06-10T03:15:01;15.80;57.10
975;DHT22;6115;49.296;10.602;2023-06-10T03:20:02;15.70;57.40
975;DHT22;6115;49.296;10.602;2023-06-10T03:25:04;15.70;57.60
975;DHT22;6115;49.296;10.602;2023-06-10T03:30:06;15.60;57.70
975;DHT22;6115;49.296;10.602;2023-06-10T03:35:07;15.50;57.90
975;DHT22;6115;49.296;10.602;2023-06-10T03:40:08;15.50;58.10
975;DHT22;6115;49.296;10.602;2023-06-10T03:45:09;15.40;58.00
975;DHT22;6115;49.296;10.602;2023-06-10T03:50:10;15.40;58.30
975;DHT22;6115;49.296;10.602;2023-06-10T03:55:10;15.40;58.80
975;DHT22;6115;49.296;10.602;2023-06-10T04:00:14;15.40;58.60
975;DHT22;6115;49.296;10.602;2023-06-10T04:05:17;15.40;58.50
975;DHT22;6115;49.296;10.602;2023-06-10T04:10:17;15.40;58.90
975;DHT22;6115;49.296;10.602;2023-06-10T04:15:18;15.50;58.90
975;DHT22;6115;49.296;10.602;2023-06-10T04:20:19;15.60;59.40
975;DHT22;6115;49.296;10.602;2023-06-10T04:25:19;15.60;59.70
975;DHT22;6115;49.296;10.602;2023-06-10T04:30:20;15.60;59.70
975;DHT22;6115;49.296;10.602;2023-06-10T04:35:21;15.70;59.80
975;DHT22;6115;49.296;10.602;2023-06-10T04:40:22;15.80;59.90
975;DHT22;6115;49.296;10.602;2023-06-10T04:45:24;15.80;59.90
975;DHT22;6115;49.296;10.602;2023-06-10T04:50:25;15.80;59.90
975;DHT22;6115;49.296;10.602;2023-06-10T04:55:26;15.90;60.50
975;DHT22;6115;49.296;10.602;2023-06-10T05:00:26;16.00;61.00
975;DHT22;6115;49.296;10.602;2023-06-10T05:05:27;16.20;60.90
975;DHT22;6115;49.296;10.602;2023-06-10T05:10:27;16.30;61.40
975;DHT22;6115;49.296;10.602;2023-06-10T05:15:31;16.40;61.20
975;DHT22;6115;49.296;10.602;2023-06-10T05:20:32;16.60;61.10
975;DHT22;6115;49.296;10.602;2023-06-10T05:25:33;16.80;60.80
975;DHT22;6115;49.296;10.602;2023-06-10T05:30:34;16.90;61.00
975;DHT22;6115;49.296;10.602;2023-06-10T05:35:34;17.10;60.80
975;DHT22;6115;49.296;10.602;2023-06-10T05:40:35;17.20;60.60
975;DHT22;6115;49.296;10.602;2023-06-10T05:45:35;17.40;60.50
975;DHT22;6115;49.296;10.602;2023-06-10T05:50:36;17.60;60.40
975;DHT22;6115;49.296;10.602;2023-06-10T05:55:39;17.80;59.40
975;DHT22;6115;49.296;10.602;2023-06-10T06:00:40;18.00;59.70
975;DHT22;6115;49.296;10.602;2023-06-10T06:05:40;18.20;59.70
975;DHT22;6115;49.296;10.602;2023-06-10T06:10:41;18.40;57.70
975;DHT22;6115;49.296;10.602;2023-06-10T06:15:41;18.60;57.80
975;DHT22;6115;49.296;10.602;2023-06-10T06:20:42;18.70;56.80
975;DHT22;6115;49.296;10.602;2023-06-10T06:25:43;18.90;56.20
975;DHT22;6115;49.296;10.602;2023-06-10T06:30:43;19.20;56.20
975;DHT22;6115;49.296;10.602;2023-06-10T06:35:44;19.40;54.00
975;DHT22;6115;49.296;10.602;2023-06-10T06:40:44;19.60;54.20
975;DHT22;6115;49.296;10.602;2023-06-10T06:45:45;19.70;52.70
975;DHT22;6115;49.296;10.602;2023-06-10T06:50:46;19.90;53.20
975;DHT22;6115;49.296;10.602;2023-06-10T06:55:47;20.10;52.50
975;DHT22;6115;49.296;10.602;2023-06-10T07:00:47;20.30;52.80
975;DHT22;6115;49.296;10.602;2023-06-10T07:05:48;20.50;52.10
975;DHT22;6115;49.296;10.602;2023-06-10T07:10:48;20.70;51.20
975;DHT22;6115;49.296;10.602;2023-06-10T07:15:49;20.90;50.80
975;DHT22;6115;49.296;10.602;2023-06-10T07:20:50;21.00;50.50
975;DHT22;6115;49.296;10.602;2023-06-10T07:25:50;21.10;50.60
975;DHT22;6115;49.296;10.602;2023-06-10T07:30:51;21.30;50.40
975;DHT22;6115;49.296;10.602;2023-06-10T07:35:55;21.50;48.40
975;DHT22;6115;49.296;10.602;2023-06-10T07:40:55;21.60;48.90
975;DHT22;6115;49.296;10.602;2023-06-10T07:45:56;21.90;48.40
975;DHT22;6115;49.296;10.602;2023-06-10T07:50:56;22.00;47.50
975;DHT22;6115;49.296;10.602;2023-06-10T07:55:57;22.20;46.90
975;DHT22;6115;49.296;10.602;2023-06-10T08:00:57;22.20;47.30
975;DHT22;6115;49.296;10.602;2023-06-10T08:05:58;22.40;47.00
975;DHT22;6115;49.296;10.602;2023-06-10T08:10:58;22.60;46.10
975;DHT22;6115;49.296;10.602;2023-06-10T08:15:59;22.70;46.00
975;DHT22;6115;49.296;10.602;2023-06-10T08:21:01;22.90;46.20
975;DHT22;6115;49.296;10.602;2023-06-10T08:26:02;23.00;46.70
975;DHT22;6115;49.296;10.602;2023-06-10T08:31:03;23.20;46.10
975;DHT22;6115;49.296;10.602;2023-06-10T08:36:04;23.10;46.90
975;DHT22;6115;49.296;10.602;2023-06-10T08:41:05;23.30;46.00
975;DHT22;6115;49.296;10.602;2023-06-10T08:46:09;23.50;45.60
975;DHT22;6115;49.296;10.602;2023-06-10T08:51:11;23.60;45.30
975;DHT22;6115;49.296;10.602;2023-06-10T08:56:12;23.90;45.40
975;DHT22;6115;49.296;10.602;2023-06-10T09:01:13;24.10;44.20
975;DHT22;6115;49.296;10.602;2023-06-10T09:06:16;24.40;43.80
975;DHT22;6115;49.296;10.602;2023-06-10T09:11:17;24.80;42.90
975;DHT22;6115;49.296;10.602;2023-06-10T09:16:17;25.30;42.20
975;DHT22;6115;49.296;10.602;2023-06-10T09:21:18;25.90;40.80
975;DHT22;6115;49.296;10.602;2023-06-10T09:26:19;25.90;40.00
975;DHT22;6115;49.296;10.602;2023-06-10T09:31:19;25.60;38.90
975;DHT22;6115;49.296;10.602;2023-06-10T09:36:22;25.40;38.80
975;DHT22;6115;49.296;10.602;2023-06-10T09:41:34;25.60;39.10
975;DHT22;6115;49.296;10.602;2023-06-10T09:46:35;26.00;37.70
975;DHT22;6115;49.296;10.602;2023-06-10T09:51:35;26.30;38.30
975;DHT22;6115;49.296;10.602;2023-06-10T09:56:36;26.30;37.10
975;DHT22;6115;49.296;10.602;2023-06-10T10:01:37;26.50;36.90
975;DHT22;6115;49.296;10.602;2023-06-10T10:06:38;26.70;37.30
975;DHT22;6115;49.296;10.602;2023-06-10T10:11:39;26.50;36.30
975;DHT22;6115;49.296;10.602;2023-06-10T10:16:42;26.70;36.50
975;DHT22;6115;49.296;10.602;2023-06-10T10:21:52;27.00;36.60
975;DHT22;6115;49.296;10.602;2023-06-10T10:26:55;26.60;38.20
975;DHT22;6115;49.296;10.602;2023-06-10T10:31:59;26.60;38.00
975;DHT22;6115;49.296;10.602;2023-06-10T10:37:01;26.30;36.10
975;DHT22;6115;49.296;10.602;2023-06-10T10:42:03;26.60;36.30
975;DHT22;6115;49.296;10.602;2023-06-10T10:47:10;27.00;36.60
975;DHT22;6115;49.296;10.602;2023-06-10T10:52:16;27.10;36.70
975;DHT22;6115;49.296;10.602;2023-06-10T10:57:23;27.70;35.60
975;DHT22;6115;49.296;10.602;2023-06-10T11:07:34;27.40;34.50
975;DHT22;6115;49.296;10.602;2023-06-10T11:18:14;27.30;34.20
975;DHT22;6115;49.296;10.602;2023-06-10T11:28:28;27.40;35.30
975;DHT22;6115;49.296;10.602;2023-06-10T11:33:29;28.00;34.30
975;DHT22;6115;49.296;10.602;2023-06-10T11:38:29;28.20;34.60
975;DHT22;6115;49.296;10.602;2023-06-10T11:43:30;28.40;34.20
975;DHT22;6115;49.296;10.602;2023-06-10T11:48:31;28.30;34.60
975;DHT22;6115;49.296;10.602;2023-06-10T11:53:34;28.40;33.90
975;DHT22;6115;49.296;10.602;2023-06-10T11:58:35;28.40;34.40
975;DHT22;6115;49.296;10.602;2023-06-10T12:03:37;28.50;34.20
975;DHT22;6115;49.296;10.602;2023-06-10T12:08:44;28.50;34.70
975;DHT22;6115;49.296;10.602;2023-06-10T12:13:48;28.60;34.70
975;DHT22;6115;49.296;10.602;2023-06-10T12:18:49;28.80;35.40
975;DHT22;6115;49.296;10.602;2023-06-10T12:24:06;29.10;34.00
975;DHT22;6115;49.296;10.602;2023-06-10T12:29:24;29.10;33.00
975;DHT22;6115;49.296;10.602;2023-06-10T12:34:36;29.00;35.00
975;DHT22;6115;49.296;10.602;2023-06-10T12:39:37;29.00;32.50
975;DHT22;6115;49.296;10.602;2023-06-10T12:44:41;29.00;33.00
975;DHT22;6115;49.296;10.602;2023-06-10T12:49:41;29.00;33.00
975;DHT22;6115;49.296;10.602;2023-06-10T12:54:42;29.30;32.50
975;DHT22;6115;49.296;10.602;2023-06-10T12:59:42;29.40;30.80
975;DHT22;6115;49.296;10.602;2023-06-10T13:04:50;29.50;30.40
975;DHT22;6115;49.296;10.602;2023-06-10T13:09:51;29.60;30.90
975;DHT22;6115;49.296;10.602;2023-06-10T13:14:52;29.90;30.00
975;DHT22;6115;49.296;10.602;2023-06-10T13:19:54;30.10;30.40
975;DHT22;6115;49.296;10.602;2023-06-10T13:24:54;30.40;31.80
975;DHT22;6115;49.296;10.602;2023-06-10T13:29:55;30.30;29.20
975;DHT22;6115;49.296;10.602;2023-06-10T13:34:56;30.50;30.00
975;DHT22;6115;49.296;10.602;2023-06-10T13:39:57;30.30;30.00
975;DHT22;6115;49.296;10.602;2023-06-10T13:44:57;30.30;30.00
975;DHT22;6115;49.296;10.602;2023-06-10T13:49:58;30.50;29.90
975;DHT22;6115;49.296;10.602;2023-06-10T13:54:59;30.70;30.00
975;DHT22;6115;49.296;10.602;2023-06-10T13:59:59;30.30;29.70
975;DHT22;6115;49.296;10.602;2023-06-10T14:05:00;29.80;30.40
975;DHT22;6115;49.296;10.602;2023-06-10T14:10:01;29.80;30.70
975;DHT22;6115;49.296;10.602;2023-06-10T14:15:02;30.00;30.50
975;DHT22;6115;49.296;10.602;2023-06-10T14:20:03;30.20;29.10
975;DHT22;6115;49.296;10.602;2023-06-10T14:25:05;30.20;29.60
975;DHT22;6115;49.296;10.602;2023-06-10T14:30:06;29.90;30.50
975;DHT22;6115;49.296;10.602;2023-06-10T14:35:07;29.60;30.90
975;DHT22;6115;49.296;10.602;2023-06-10T14:40:08;29.80;31.40
975;DHT22;6115;49.296;10.602;2023-06-10T14:45:08;30.20;31.30
975;DHT22;6115;49.296;10.602;2023-06-10T14:50:10;30.40;30.50
975;DHT22;6115;49.296;10.602;2023-06-10T14:55:11;30.70;31.00
975;DHT22;6115;49.296;10.602;2023-06-10T15:00:12;30.80;29.80
975;DHT22;6115;49.296;10.602;2023-06-10T15:05:16;30.90;29.50
975;DHT22;6115;49.296;10.602;2023-06-10T15:10:17;31.10;29.60
975;DHT22;6115;49.296;10.602;2023-06-10T15:15:18;31.30;29.70
975;DHT22;6115;49.296;10.602;2023-06-10T15:20:19;31.50;29.40
975;DHT22;6115;49.296;10.602;2023-06-10T15:25:19;31.40;29.20
975;DHT22;6115;49.296;10.602;2023-06-10T15:30:20;31.30;29.70
975;DHT22;6115;49.296;10.602;2023-06-10T15:35:21;31.10;29.60
975;DHT22;6115;49.296;10.602;2023-06-10T15:40:22;31.30;29.70
975;DHT22;6115;49.296;10.602;2023-06-10T15:45:22;31.00;30.30
975;DHT22;6115;49.296;10.602;2023-06-10T15:50:23;30.60;31.30
975;DHT22;6115;49.296;10.602;2023-06-10T15:55:23;30.20;32.70
975;DHT22;6115;49.296;10.602;2023-06-10T16:00:26;30.10;32.30
975;DHT22;6115;49.296;10.602;2023-06-10T16:05:26;29.60;33.00
975;DHT22;6115;49.296;10.602;2023-06-10T16:10:28;29.10;33.00
975;DHT22;6115;49.296;10.602;2023-06-10T16:15:29;28.90;33.90
975;DHT22;6115;49.296;10.602;2023-06-10T16:20:29;28.60;33.70
975;DHT22;6115;49.296;10.602;2023-06-10T16:25:30;28.40;35.00
975;DHT22;6115;49.296;10.602;2023-06-10T16:30:32;28.20;35.40
975;DHT22;6115;49.296;10.602;2023-06-10T16:35:36;28.10;35.50
975;DHT22;6115;49.296;10.602;2023-06-10T16:40:36;28.00;35.60
975;DHT22;6115;49.296;10.602;2023-06-10T16:45:37;27.90;35.50
975;DHT22;6115;49.296;10.602;2023-06-10T16:50:39;27.90;36.30
975;DHT22;6115;49.296;10.602;2023-06-10T16:55:39;28.00;36.70
975;DHT22;6115;49.296;10.602;2023-06-10T17:00:41;27.90;35.10
975;DHT22;6115;49.296;10.602;2023-06-10T17:05:45;27.70;34.30
975;DHT22;6115;49.296;10.602;2023-06-10T17:10:46;27.70;34.90
975;DHT22;6115;49.296;10.602;2023-06-10T17:15:48;27.70;36.30
975;DHT22;6115;49.296;10.602;2023-06-10T17:20:49;27.40;36.30
975;DHT22;6115;49.296;10.602;2023-06-10T17:25:50;27.10;36.70
975;DHT22;6115;49.296;10.602;2023-06-10T17:30:50;26.90;35.90
975;DHT22;6115;49.296;10.602;2023-06-10T17:35:51;26.80;36.40
975;DHT22;6115;49.296;10.602;2023-06-10T17:40:51;26.70;36.40
975;DHT22;6115;49.296;10.602;2023-06-10T17:45:53;26.50;36.90
975;DHT22;6115;49.296;10.602;2023-06-10T17:50:54;26.50;37.80
975;DHT22;6115;49.296;10.602;2023-06-10T17:55:54;26.20;38.30
975;DHT22;6115;49.296;10.602;2023-06-10T18:00:55;26.10;39.20
975;DHT22;6115;49.296;10.602;2023-06-10T18:05:55;25.90;39.80
975;DHT22;6115;49.296;10.602;2023-06-10T18:10:56;25.70;40.60
975;DHT22;6115;49.296;10.602;2023-06-10T18:15:57;25.60;40.90
975;DHT22;6115;49.296;10.602;2023-06-10T18:21:00;25.60;41.40
975;DHT22;6115;49.296;10.602;2023-06-10T18:26:00;25.60;41.50
975;DHT22;6115;49.296;10.602;2023-06-10T18:31:04;25.40;41.50
975;DHT22;6115;49.296;10.602;2023-06-10T18:36:05;25.30;41.40
975;DHT22;6115;49.296;10.602;2023-06-10T18:41:05;25.20;41.50
975;DHT22;6115;49.296;10.602;2023-06-10T18:46:06;25.10;41.90
975;DHT22;6115;49.296;10.602;2023-06-10T18:51:09;25.00;42.00
975;DHT22;6115;49.296;10.602;2023-06-10T18:56:09;24.70;43.80
975;DHT22;6115;49.296;10.602;2023-06-10T19:01:12;24.40;44.40
975;DHT22;6115;49.296;10.602;2023-06-10T19:06:12;24.50;44.50
975;DHT22;6115;49.296;10.602;2023-06-10T19:11:14;24.30;44.40
975;DHT22;6115;49.296;10.602;2023-06-10T19:16:15;24.20;45.30
975;DHT22;6115;49.296;10.602;2023-06-10T19:21:15;24.10;45.80
975;DHT22;6115;49.296;10.602;2023-06-10T19:26:16;24.00;45.90
975;DHT22;6115;49.296;10.602;2023-06-10T19:31:17;23.80;46.20
975;DHT22;6115;49.296;10.602;2023-06-10T19:36:17;23.80;46.20
975;DHT22;6115;49.296;10.602;2023-06-10T19:41:18;23.70;46.30
975;DHT22;6115;49.296;10.602;2023-06-10T19:46:20;23.50;46.70
975;DHT22;6115;49.296;10.602;2023-06-10T19:51:21;23.50;47.20
975;DHT22;6115;49.296;10.602;2023-06-10T19:56:21;23.50;47.20
975;DHT22;6115;49.296;10.602;2023-06-10T20:01:22;23.20;47.30
975;DHT22;6115;49.296;10.602;2023-06-10T20:06:23;23.10;47.50
975;DHT22;6115;49.296;10.602;2023-06-10T20:11:23;22.90;47.80
975;DHT22;6115;49.296;10.602;2023-06-10T20:16:25;22.60;48.50
975;DHT22;6115;49.296;10.602;2023-06-10T20:21:25;22.40;48.60
975;DHT22;6115;49.296;10.602;2023-06-10T20:26:26;22.40;48.60
975;DHT22;6115;49.296;10.602;2023-06-10T20:31:27;22.30;48.50
975;DHT22;6115;49.296;10.602;2023-06-10T20:36:27;22.30;48.60
975;DHT22;6115;49.296;10.602;2023-06-10T20:41:28;22.20;49.20
975;DHT22;6115;49.296;10.602;2023-06-10T20:46:29;22.00;49.40
975;DHT22;6115;49.296;10.602;2023-06-10T20:51:30;22.00;49.60
975;DHT22;6115;49.296;10.602;2023-06-10T20:56:32;21.90;49.60
975;DHT22;6115;49.296;10.602;2023-06-10T21:01:33;21.90;49.90
975;DHT22;6115;49.296;10.602;2023-06-10T21:06:34;21.80;49.80
975;DHT22;6115;49.296;10.602;2023-06-10T21:11:35;21.80;50.60
975;DHT22;6115;49.296;10.602;2023-06-10T21:16:35;21.70;50.20
975;DHT22;6115;49.296;10.602;2023-06-10T21:21:37;21.60;50.30
975;DHT22;6115;49.296;10.602;2023-06-10T21:26:38;21.60;50.30
975;DHT22;6115;49.296;10.602;2023-06-10T21:31:38;21.70;50.00
975;DHT22;6115;49.296;10.602;2023-06-10T21:36:39;21.60;50.40
975;DHT22;6115;49.296;10.602;2023-06-10T21:41:40;21.50;50.40
975;DHT22;6115;49.296;10.602;2023-06-10T21:46:40;21.40;50.80
975;DHT22;6115;49.296;10.602;2023-06-10T21:51:41;21.40;50.80
975;DHT22;6115;49.296;10.602;2023-06-10T21:56:43;21.30;51.10
975;DHT22;6115;49.296;10.602;2023-06-10T22:01:47;21.10;51.00
975;DHT22;6115;49.296;10.602;2023-06-10T22:06:47;21.00;50.90
975;DHT22;6115;49.296;10.602;2023-06-10T22:11:48;20.90;51.30
975;DHT22;6115;49.296;10.602;2023-06-10T22:16:49;20.80;51.40
975;DHT22;6115;49.296;10.602;2023-06-10T22:21:50;20.80;51.70
975;DHT22;6115;49.296;10.602;2023-06-10T22:26:51;20.70;51.90
975;DHT22;6115;49.296;10.602;2023-06-10T22:31:51;20.60;51.70
975;DHT22;6115;49.296;10.602;2023-06-10T22:36:52;20.60;51.90
975;DHT22;6115;49.296;10.602;2023-06-10T22:41:53;20.60;52.10
975;DHT22;6115;49.296;10.602;2023-06-10T22:46:53;20.50;52.30
975;DHT22;6115;49.296;10.602;2023-06-10T22:51:54;20.20;52.80
975;DHT22;6115;49.296;10.602;2023-06-10T22:56:54;20.00;53.30
975;DHT22;6115;49.296;10.602;2023-06-10T23:01:55;19.90;53.80
975;DHT22;6115;49.296;10.602;2023-06-10T23:06:55;19.80;54.20
975;DHT22;6115;49.296;10.602;2023-06-10T23:11:56;19.60;54.20
975;DHT22;6115;49.296;10.602;2023-06-10T23:16:56;19.60;54.20
975;DHT22;6115;49.296;10.602;2023-06-10T23:21:57;19.50;54.10
975;DHT22;6115;49.296;10.602;2023-06-10T23:27:00;19.50;54.50
975;DHT22;6115;49.296;10.602;2023-06-10T23:32:01;19.40;55.10
975;DHT22;6115;49.296;10.602;2023-06-10T23:37:01;19.40;55.00
975;DHT22;6115;49.296;10.602;2023-06-10T23:42:05;19.30;55.20
975;DHT22;6115;49.296;10.602;2023-06-10T23:47:06;19.20;55.40
975;DHT22;6115;49.296;10.602;2023-06-10T23:52:07;19.20;55.60
975;DHT22;6115;49.296;10.602;2023-06-10T23:57:08;19.10;56.10
